createdAt,value
2023-05-12T00:00:40.098Z,0.00
2023-05-12T00:01:40.086Z,0.00
2023-05-12T00:02:40.173Z,0.00
2023-05-12T00:03:40.240Z,0.00
2023-05-12T00:04:40.064Z,0.00
2023-05-12T00:05:40.041Z,0.00
2023-05-12T00:06:40.024Z,0.00
2023-05-12T00:07:40.014Z,0.00
2023-05-12T00:08:40.002Z,0.00
2023-05-12T00:09:39.996Z,0.00
2023-05-12T00:10:39.978Z,0.00
2023-05-12T00:11:40.006Z,0.00
2023-05-12T00:12:39.978Z,0.00
2023-05-12T00:13:40.008Z,0.00
2023-05-12T00:14:39.932Z,0.00
2023-05-12T00:15:39.926Z,0.00
2023-05-12T00:16:39.964Z,0.00
2023-05-12T00:17:39.975Z,0.00
2023-05-12T00:18:39.900Z,0.00
2023-05-12T00:19:39.879Z,0.00
2023-05-12T00:20:39.862Z,0.00
2023-05-12T00:21:39.857Z,0.00
2023-05-12T00:22:39.841Z,0.00
2023-05-12T00:23:39.835Z,0.00
2023-05-12T00:24:39.841Z,0.00
2023-05-12T00:25:39.811Z,0.00
2023-05-12T00:26:39.795Z,0.00
2023-05-12T00:27:39.798Z,0.00
2023-05-12T00:28:39.794Z,0.00
2023-05-12T00:29:39.767Z,0.00
2023-05-12T00:30:39.751Z,0.00
2023-05-12T00:31:39.799Z,0.00
2023-05-12T00:32:39.762Z,0.00
2023-05-12T00:33:39.718Z,0.00
2023-05-12T00:34:39.708Z,0.00
2023-05-12T00:35:39.698Z,0.00
2023-05-12T00:36:39.689Z,0.00
2023-05-12T00:38:39.668Z,0.00
2023-05-12T00:39:39.654Z,0.00
2023-05-12T00:40:39.642Z,0.00
2023-05-12T00:41:39.628Z,0.00
2023-05-12T00:42:39.636Z,0.00
2023-05-12T00:43:39.609Z,0.00
2023-05-12T00:44:39.620Z,0.00
2023-05-12T00:45:39.663Z,0.00
2023-05-12T00:46:39.572Z,0.00
2023-05-12T00:47:39.586Z,0.00
2023-05-12T00:48:39.554Z,0.00
2023-05-12T00:49:39.542Z,0.00
2023-05-12T00:50:39.531Z,0.00
2023-05-12T00:51:39.516Z,0.00
2023-05-12T00:52:39.508Z,0.00
2023-05-12T00:53:48.394Z,0.00
2023-05-12T00:54:39.484Z,0.00
2023-05-12T00:55:39.471Z,0.00
2023-05-12T00:56:39.583Z,0.00
2023-05-12T00:57:39.449Z,0.00
2023-05-12T00:58:39.439Z,0.00
2023-05-12T00:59:39.427Z,0.00
2023-05-12T01:00:39.439Z,0.00
2023-05-12T01:01:39.494Z,0.00
2023-05-12T01:02:39.478Z,0.00
2023-05-12T01:03:39.419Z,0.00
2023-05-12T01:04:39.373Z,0.00
2023-05-12T01:05:39.359Z,0.00
2023-05-12T01:06:39.347Z,0.00
2023-05-12T01:07:39.342Z,0.00
2023-05-12T01:08:39.329Z,0.00
2023-05-12T01:09:39.314Z,0.00
2023-05-12T01:10:39.302Z,0.00
2023-05-12T01:11:39.288Z,0.00
2023-05-12T01:12:39.281Z,0.00
2023-05-12T01:13:39.266Z,0.00
2023-05-12T01:14:39.258Z,0.00
2023-05-12T01:15:39.242Z,0.00
2023-05-12T01:16:39.253Z,0.00
2023-05-12T01:17:39.472Z,0.00
2023-05-12T01:18:39.225Z,0.00
2023-05-12T01:19:39.203Z,0.00
2023-05-12T01:20:39.186Z,0.00
2023-05-12T01:21:39.181Z,0.00
2023-05-12T01:22:39.162Z,0.00
2023-05-12T01:23:39.155Z,0.00
2023-05-12T01:24:39.140Z,0.00
2023-05-12T01:25:39.131Z,0.00
2023-05-12T01:26:39.117Z,0.00
2023-05-12T01:27:39.108Z,0.00
2023-05-12T01:28:39.104Z,0.00
2023-05-12T01:29:39.095Z,0.00
2023-05-12T01:30:39.085Z,0.00
2023-05-12T01:31:39.205Z,0.00
2023-05-12T01:32:39.129Z,0.00
2023-05-12T01:33:39.038Z,0.00
2023-05-12T01:34:39.024Z,0.00
2023-05-12T01:35:39.016Z,0.00
2023-05-12T01:36:38.997Z,0.00
2023-05-12T01:37:38.989Z,0.00
2023-05-12T01:38:38.973Z,0.00
2023-05-12T01:39:38.969Z,0.00
2023-05-12T01:40:38.951Z,0.00
2023-05-12T01:41:38.941Z,0.00
2023-05-12T01:42:38.930Z,0.00
2023-05-12T01:43:38.918Z,0.00
2023-05-12T01:44:38.905Z,0.00
2023-05-12T01:45:38.893Z,0.00
2023-05-12T01:46:38.906Z,0.00
2023-05-12T01:47:38.910Z,0.00
2023-05-12T01:48:38.883Z,0.00
2023-05-12T01:49:38.852Z,0.00
2023-05-12T01:50:38.847Z,0.00
2023-05-12T01:51:38.825Z,0.00
2023-05-12T01:52:38.820Z,0.00
2023-05-12T01:53:38.800Z,0.00
2023-05-12T01:54:38.786Z,0.00
2023-05-12T01:55:38.775Z,0.00
2023-05-12T01:56:38.967Z,0.00
2023-05-12T01:57:38.754Z,0.00
2023-05-12T01:58:38.780Z,0.00
2023-05-12T01:59:38.730Z,0.00
2023-05-12T02:00:38.712Z,0.00
2023-05-12T02:01:38.816Z,0.00
2023-05-12T02:02:40.213Z,0.00
2023-05-12T02:03:38.837Z,0.00
2023-05-12T02:04:38.690Z,0.00
2023-05-12T02:05:38.659Z,0.00
2023-05-12T02:06:38.641Z,0.00
2023-05-12T02:07:38.637Z,0.00
2023-05-12T02:08:38.630Z,0.00
2023-05-12T02:09:38.625Z,0.00
2023-05-12T02:10:38.597Z,0.00
2023-05-12T02:11:38.584Z,0.00
2023-05-12T02:12:38.578Z,0.00
2023-05-12T02:13:38.567Z,0.00
2023-05-12T02:14:38.547Z,0.00
2023-05-12T02:15:38.545Z,0.00
2023-05-12T02:16:38.557Z,0.00
2023-05-12T02:17:38.558Z,0.00
2023-05-12T02:18:38.557Z,0.00
2023-05-12T02:19:38.507Z,0.00
2023-05-12T02:20:38.502Z,0.00
2023-05-12T02:21:38.473Z,0.00
2023-05-12T02:22:38.451Z,0.00
2023-05-12T02:23:38.452Z,0.00
2023-05-12T02:24:38.434Z,0.00
2023-05-12T02:25:38.433Z,0.00
2023-05-12T02:26:38.410Z,0.00
2023-05-12T02:27:38.402Z,0.00
2023-05-12T02:28:38.389Z,0.00
2023-05-12T02:29:38.380Z,0.00
2023-05-12T02:30:38.361Z,0.00
2023-05-12T02:31:38.373Z,0.00
2023-05-12T02:32:38.376Z,0.00
2023-05-12T02:33:38.337Z,0.00
2023-05-12T02:34:38.323Z,0.00
2023-05-12T02:35:38.303Z,0.00
2023-05-12T02:36:38.321Z,0.00
2023-05-12T02:37:38.297Z,0.00
2023-05-12T02:38:38.269Z,0.00
2023-05-12T02:39:38.274Z,0.00
2023-05-12T02:40:38.245Z,0.00
2023-05-12T02:41:38.270Z,0.00
2023-05-12T02:42:38.295Z,0.00
2023-05-12T02:43:38.211Z,0.00
2023-05-12T02:44:38.196Z,0.00
2023-05-12T02:45:38.239Z,0.00
2023-05-12T02:46:38.228Z,0.00
2023-05-12T02:47:38.202Z,0.00
2023-05-12T02:48:38.214Z,0.00
2023-05-12T02:49:38.222Z,0.00
2023-05-12T02:50:38.129Z,0.00
2023-05-12T02:51:38.119Z,0.00
2023-05-12T02:52:38.125Z,0.00
2023-05-12T02:53:38.100Z,0.00
2023-05-12T02:54:38.089Z,0.00
2023-05-12T02:55:38.074Z,0.00
2023-05-12T02:56:38.063Z,0.00
2023-05-12T02:57:38.063Z,0.00
2023-05-12T02:58:38.049Z,0.00
2023-05-12T02:59:38.033Z,0.00
2023-05-12T03:00:38.025Z,0.00
2023-05-12T03:02:38.070Z,0.00
2023-05-12T03:03:38.287Z,0.00
2023-05-12T03:04:37.973Z,0.00
2023-05-12T03:05:37.956Z,0.00
2023-05-12T03:06:37.956Z,0.00
2023-05-12T03:07:37.931Z,0.00
2023-05-12T03:08:37.951Z,0.00
2023-05-12T03:09:37.918Z,0.00
2023-05-12T03:10:37.898Z,0.00
2023-05-12T03:11:37.897Z,0.00
2023-05-12T03:12:37.877Z,0.00
2023-05-12T03:13:37.871Z,0.00
2023-05-12T03:14:37.853Z,0.00
2023-05-12T03:15:37.838Z,0.00
2023-05-12T03:16:37.873Z,0.00
2023-05-12T03:17:37.945Z,0.00
2023-05-12T03:18:37.835Z,0.00
2023-05-12T03:19:37.792Z,0.00
2023-05-12T03:20:37.789Z,0.00
2023-05-12T03:21:37.775Z,0.00
2023-05-12T03:22:37.763Z,0.00
2023-05-12T03:23:37.738Z,0.00
2023-05-12T03:24:37.873Z,0.00
2023-05-12T03:25:37.725Z,0.00
2023-05-12T03:26:37.708Z,0.00
2023-05-12T03:27:37.697Z,0.00
2023-05-12T03:28:37.725Z,0.00
2023-05-12T03:29:37.673Z,0.00
2023-05-12T03:30:37.659Z,0.00
2023-05-12T03:31:37.721Z,0.00
2023-05-12T03:32:37.773Z,0.00
2023-05-12T03:33:37.627Z,0.00
2023-05-12T03:34:37.629Z,4.00
2023-05-12T03:35:37.599Z,0.00
2023-05-12T03:36:37.592Z,0.00
2023-05-12T03:37:37.577Z,4.00
2023-05-12T03:38:37.564Z,4.00
2023-05-12T03:39:37.551Z,4.00
2023-05-12T03:41:37.549Z,4.00
2023-05-12T03:42:37.515Z,8.00
2023-05-12T03:43:37.538Z,8.00
2023-05-12T03:44:37.492Z,8.00
2023-05-12T03:45:37.493Z,8.00
2023-05-12T03:46:37.544Z,8.00
2023-05-12T03:47:37.637Z,12.00
2023-05-12T03:48:37.456Z,12.00
2023-05-12T03:49:37.435Z,12.00
2023-05-12T03:50:37.432Z,16.00
2023-05-12T03:51:37.417Z,16.00
2023-05-12T03:52:37.398Z,16.00
2023-05-12T03:53:37.394Z,20.00
2023-05-12T03:54:38.108Z,24.00
2023-05-12T03:55:37.367Z,28.00
2023-05-12T03:56:37.361Z,28.00
2023-05-12T03:57:37.363Z,32.00
2023-05-12T03:58:37.328Z,32.00
2023-05-12T03:59:37.317Z,36.00
2023-05-12T04:00:37.303Z,44.00
2023-05-12T04:01:37.318Z,44.00
2023-05-12T04:02:37.373Z,44.00
2023-05-12T04:03:37.391Z,48.00
2023-05-12T04:04:37.255Z,52.00
2023-05-12T04:05:37.249Z,56.00
2023-05-12T04:06:37.232Z,56.00
2023-05-12T04:07:37.246Z,60.00
2023-05-12T04:08:38.089Z,64.00
2023-05-12T04:09:37.202Z,68.00
2023-05-12T04:10:37.191Z,76.00
2023-05-12T04:11:37.179Z,84.00
2023-05-12T04:12:37.162Z,88.00
2023-05-12T04:13:37.170Z,96.00
2023-05-12T04:15:37.125Z,104.00
2023-05-12T04:16:37.172Z,112.00
2023-05-12T04:17:37.123Z,116.00
2023-05-12T04:18:37.124Z,116.00
2023-05-12T04:19:37.090Z,120.00
2023-05-12T04:20:37.076Z,120.00
2023-05-12T04:21:37.057Z,128.00
2023-05-12T04:22:37.050Z,128.00
2023-05-12T04:23:37.251Z,136.00
2023-05-12T04:24:37.024Z,132.00
2023-05-12T04:25:37.008Z,140.00
2023-05-12T04:26:36.999Z,136.00
2023-05-12T04:27:36.992Z,140.00
2023-05-12T04:28:36.985Z,148.00
2023-05-12T04:29:36.988Z,148.00
2023-05-12T04:30:36.955Z,152.00
2023-05-12T04:31:36.957Z,152.00
2023-05-12T04:32:36.981Z,152.00
2023-05-12T04:33:36.915Z,156.00
2023-05-12T04:34:36.912Z,156.00
2023-05-12T04:35:36.892Z,164.00
2023-05-12T04:36:36.884Z,164.00
2023-05-12T04:37:36.875Z,168.00
2023-05-12T04:38:36.861Z,172.00
2023-05-12T04:39:36.864Z,172.00
2023-05-12T04:40:36.855Z,172.00
2023-05-12T04:41:36.827Z,172.00
2023-05-12T04:42:36.814Z,164.00
2023-05-12T04:44:36.792Z,164.00
2023-05-12T04:45:36.836Z,168.00
2023-05-12T04:46:36.801Z,172.00
2023-05-12T04:47:36.789Z,176.00
2023-05-12T04:48:36.740Z,184.00
2023-05-12T04:49:36.724Z,192.00
2023-05-12T04:50:36.719Z,200.00
2023-05-12T04:51:36.710Z,208.00
2023-05-12T04:52:36.689Z,212.00
2023-05-12T04:53:36.683Z,224.00
2023-05-12T04:54:36.672Z,228.00
2023-05-12T04:55:36.658Z,232.00
2023-05-12T04:56:36.650Z,232.00
2023-05-12T04:57:36.631Z,236.00
2023-05-12T04:58:36.634Z,236.00
2023-05-12T04:59:36.602Z,236.00
2023-05-12T05:00:36.600Z,236.00
2023-05-12T05:01:36.670Z,244.00
2023-05-12T05:02:36.638Z,248.00
2023-05-12T05:04:36.541Z,272.00
2023-05-12T05:05:36.550Z,280.00
2023-05-12T05:06:36.524Z,284.00
2023-05-12T05:07:36.522Z,288.00
2023-05-12T05:08:36.494Z,288.00
2023-05-12T05:09:36.810Z,288.00
2023-05-12T05:10:36.466Z,288.00
2023-05-12T05:11:36.459Z,288.00
2023-05-12T05:12:36.449Z,284.00
2023-05-12T05:13:36.439Z,288.00
2023-05-12T05:14:36.423Z,288.00
2023-05-12T05:15:36.446Z,284.00
2023-05-12T05:16:36.396Z,288.00
2023-05-12T05:17:36.470Z,292.00
2023-05-12T05:18:36.451Z,300.00
2023-05-12T05:19:50.892Z,304.00
2023-05-12T05:21:36.341Z,328.00
2023-05-12T05:22:36.338Z,340.00
2023-05-12T05:23:36.314Z,352.00
2023-05-12T05:24:36.302Z,368.00
2023-05-12T05:25:36.293Z,384.00
2023-05-12T05:26:36.275Z,396.00
2023-05-12T05:27:36.268Z,412.00
2023-05-12T05:28:36.252Z,432.00
2023-05-12T05:29:36.244Z,456.00
2023-05-12T05:30:36.230Z,476.00
2023-05-12T05:31:36.240Z,500.00
2023-05-12T05:32:36.216Z,524.00
2023-05-12T05:33:36.219Z,544.00
2023-05-12T05:34:36.228Z,564.00
2023-05-12T05:35:36.172Z,584.00
2023-05-12T05:36:36.154Z,600.00
2023-05-12T05:37:36.156Z,616.00
2023-05-12T05:38:36.138Z,632.00
2023-05-12T05:39:36.120Z,648.00
2023-05-12T05:40:51.457Z,688.00
2023-05-12T05:41:36.097Z,732.00
2023-05-12T05:42:36.089Z,788.00
2023-05-12T05:43:36.083Z,852.00
2023-05-12T05:44:36.081Z,904.00
2023-05-12T05:45:36.047Z,940.00
2023-05-12T05:46:36.092Z,980.00
2023-05-12T05:47:36.140Z,1020.00
2023-05-12T05:48:36.015Z,1060.00
2023-05-12T05:49:36.033Z,1104.00
2023-05-12T05:50:36.007Z,1156.00
2023-05-12T05:51:35.982Z,1224.00
2023-05-12T05:52:35.969Z,1300.00
2023-05-12T05:53:35.955Z,1368.00
2023-05-12T05:54:35.945Z,1448.00
2023-05-12T05:55:35.939Z,1504.00
2023-05-12T05:56:35.931Z,1544.00
2023-05-12T05:57:35.906Z,1564.00
2023-05-12T05:58:35.899Z,1584.00
2023-05-12T05:59:35.892Z,1604.00
2023-05-12T06:00:35.881Z,1620.00
2023-05-12T06:01:35.905Z,1628.00
2023-05-12T06:02:35.992Z,1644.00
2023-05-12T06:03:35.879Z,1652.00
2023-05-12T06:04:35.829Z,1676.00
2023-05-12T06:05:35.853Z,1752.00
2023-05-12T06:06:35.805Z,1768.00
2023-05-12T06:07:35.790Z,1748.00
2023-05-12T06:08:35.785Z,1712.00
2023-05-12T06:09:35.770Z,1680.00
2023-05-12T06:10:35.807Z,1636.00
2023-05-12T06:11:35.755Z,1612.00
2023-05-12T06:12:35.739Z,1608.00
2023-05-12T06:13:35.724Z,1620.00
2023-05-12T06:14:35.719Z,1628.00
2023-05-12T06:15:35.702Z,1640.00
2023-05-12T06:16:35.804Z,1656.00
2023-05-12T06:17:35.707Z,1688.00
2023-05-12T06:18:35.718Z,1712.00
2023-05-12T06:19:35.663Z,1716.00
2023-05-12T06:20:35.649Z,1720.00
2023-05-12T06:21:35.656Z,1712.00
2023-05-12T06:22:35.629Z,1696.00
2023-05-12T06:23:35.614Z,1688.00
2023-05-12T06:24:35.609Z,1696.00
2023-05-12T06:25:35.592Z,1740.00
2023-05-12T06:26:35.584Z,1812.00
2023-05-12T06:27:35.574Z,1912.00
2023-05-12T06:28:35.576Z,1968.00
2023-05-12T06:29:35.556Z,1960.00
2023-05-12T06:30:35.550Z,1892.00
2023-05-12T06:31:35.581Z,1780.00
2023-05-12T06:32:35.562Z,1684.00
2023-05-12T06:33:35.515Z,1584.00
2023-05-12T06:34:35.503Z,1532.00
2023-05-12T06:35:35.501Z,1528.00
2023-05-12T06:36:35.485Z,1568.00
2023-05-12T06:37:35.510Z,1656.00
2023-05-12T06:38:35.468Z,1804.00
2023-05-12T06:39:35.449Z,1944.00
2023-05-12T06:40:35.471Z,1992.00
2023-05-12T06:41:35.433Z,1976.00
2023-05-12T06:42:35.433Z,1904.00
2023-05-12T06:43:35.410Z,1832.00
2023-05-12T06:44:35.403Z,1788.00
2023-05-12T06:45:35.408Z,1748.00
2023-05-12T06:46:35.443Z,1760.00
2023-05-12T06:47:35.443Z,1788.00
2023-05-12T06:48:35.364Z,1796.00
2023-05-12T06:49:35.351Z,1784.00
2023-05-12T06:50:35.342Z,1804.00
2023-05-12T06:51:35.337Z,1832.00
2023-05-12T06:52:35.322Z,1856.00
2023-05-12T06:53:35.329Z,1868.00
2023-05-12T06:54:35.302Z,1924.00
2023-05-12T06:55:35.291Z,1960.00
2023-05-12T06:56:35.296Z,1984.00
2023-05-12T06:57:35.270Z,1992.00
2023-05-12T06:58:35.280Z,1996.00
2023-05-12T06:59:35.255Z,1948.00
2023-05-12T07:00:35.246Z,1860.00
2023-05-12T07:01:35.309Z,1776.00
2023-05-12T07:02:35.281Z,1724.00
2023-05-12T07:03:35.245Z,1668.00
2023-05-12T07:04:35.203Z,1612.00
2023-05-12T07:05:35.197Z,1568.00
2023-05-12T07:06:35.182Z,1568.00
2023-05-12T07:07:35.170Z,1576.00
2023-05-12T07:08:35.162Z,1560.00
2023-05-12T07:09:35.171Z,1528.00
2023-05-12T07:10:35.151Z,1500.00
2023-05-12T07:11:35.130Z,1480.00
2023-05-12T07:12:35.118Z,1480.00
2023-05-12T07:13:35.113Z,1492.00
2023-05-12T07:14:35.103Z,1484.00
2023-05-12T07:15:35.092Z,1472.00
2023-05-12T07:16:35.161Z,1456.00
2023-05-12T07:17:35.121Z,1412.00
2023-05-12T07:18:35.068Z,1380.00
2023-05-12T07:19:35.048Z,1360.00
2023-05-12T07:20:35.043Z,1336.00
2023-05-12T07:21:35.029Z,1312.00
2023-05-12T07:22:36.624Z,1320.00
2023-05-12T07:23:35.025Z,1360.00
2023-05-12T07:24:35.010Z,1436.00
2023-05-12T07:25:35.044Z,1568.00
2023-05-12T07:26:34.988Z,1740.00
2023-05-12T07:27:34.974Z,1892.00
2023-05-12T07:28:34.964Z,1960.00
2023-05-12T07:29:34.957Z,1940.00
2023-05-12T07:30:34.946Z,1884.00
2023-05-12T07:31:34.958Z,1800.00
2023-05-12T07:32:34.941Z,1740.00
2023-05-12T07:33:34.916Z,1712.00
2023-05-12T07:34:34.902Z,1704.00
2023-05-12T07:35:34.892Z,1704.00
2023-05-12T07:36:34.887Z,1748.00
2023-05-12T07:37:34.874Z,1804.00
2023-05-12T07:38:34.864Z,1856.00
2023-05-12T07:39:34.854Z,1956.00
2023-05-12T07:40:34.849Z,2064.00
2023-05-12T07:41:34.861Z,2172.00
2023-05-12T07:42:34.828Z,2260.00
2023-05-12T07:43:34.813Z,2372.00
2023-05-12T07:44:34.809Z,2400.00
2023-05-12T07:46:34.842Z,2824.00
2023-05-12T07:47:34.826Z,3024.00
2023-05-12T07:48:34.768Z,3064.00
2023-05-12T07:49:34.967Z,3052.00
2023-05-12T07:50:34.749Z,3156.00
2023-05-12T07:51:34.738Z,3096.00
2023-05-12T07:52:34.730Z,3052.00
2023-05-12T07:53:34.758Z,3076.00
2023-05-12T07:54:34.708Z,3084.00
2023-05-12T07:55:34.705Z,3152.00
2023-05-12T07:56:34.689Z,3360.00
2023-05-12T07:57:34.704Z,3468.00
2023-05-12T07:58:34.671Z,3608.00
2023-05-12T07:59:34.671Z,3760.00
2023-05-12T08:00:34.651Z,3896.00
2023-05-12T08:01:34.642Z,4004.00
2023-05-12T08:02:34.691Z,4120.00
2023-05-12T08:03:34.759Z,4284.00
2023-05-12T08:04:34.733Z,4232.00
2023-05-12T08:05:34.612Z,4332.00
2023-05-12T08:06:34.612Z,3832.00
2023-05-12T08:07:34.589Z,3876.00
2023-05-12T08:08:34.575Z,3904.00
2023-05-12T08:09:34.570Z,3832.00
2023-05-12T08:10:34.555Z,3780.00
2023-05-12T08:11:34.550Z,3884.00
2023-05-12T08:12:34.540Z,3920.00
2023-05-12T08:13:34.586Z,3824.00
2023-05-12T08:14:34.520Z,3732.00
2023-05-12T08:15:34.516Z,3724.00
2023-05-12T08:16:34.535Z,3944.00
2023-05-12T08:17:35.967Z,4284.00
2023-05-12T08:18:34.550Z,3992.00
2023-05-12T08:19:34.689Z,3992.00
2023-05-12T08:20:34.468Z,3472.00
2023-05-12T08:21:34.463Z,3200.00
2023-05-12T08:22:34.658Z,3108.00
2023-05-12T08:25:34.860Z,2992.00
2023-05-12T08:26:34.621Z,3024.00
2023-05-12T08:27:34.413Z,2932.00
2023-05-12T08:30:34.853Z,2924.00
2023-05-12T08:31:34.424Z,2868.00
2023-05-12T08:32:34.443Z,2840.00
2023-05-12T08:35:34.351Z,2856.00
2023-05-12T08:36:34.341Z,2916.00
2023-05-12T08:37:35.105Z,3012.00
2023-05-12T08:38:34.320Z,3416.00
2023-05-12T08:41:34.301Z,3536.00
2023-05-12T08:42:34.287Z,3632.00
2023-05-12T08:43:34.285Z,3692.00
2023-05-12T08:45:34.273Z,3336.00
2023-05-12T08:48:34.337Z,3356.00
2023-05-12T08:50:34.226Z,3568.00
2023-05-12T08:51:34.222Z,3712.00
2023-05-12T08:52:34.247Z,3772.00
2023-05-12T08:53:34.208Z,3768.00
2023-05-12T08:54:36.027Z,3768.00
2023-05-12T08:55:34.619Z,3756.00
2023-05-12T08:57:34.179Z,4268.00
2023-05-12T08:59:34.159Z,4092.00
2023-05-12T09:00:34.215Z,3888.00
2023-05-12T09:01:36.560Z,4064.00
2023-05-12T09:02:48.358Z,4156.00
2023-05-12T09:03:34.153Z,4216.00
2023-05-12T09:04:34.222Z,4060.00
2023-05-12T09:05:34.118Z,4000.00
2023-05-12T09:06:34.118Z,4192.00
2023-05-12T09:07:34.103Z,3956.00
2023-05-12T09:08:34.101Z,4040.00
2023-05-12T09:09:34.089Z,3936.00
2023-05-12T09:10:35.465Z,3480.00
2023-05-12T09:11:34.075Z,3436.00
2023-05-12T09:12:34.070Z,3404.00
2023-05-12T09:13:34.064Z,3372.00
2023-05-12T09:14:34.060Z,3368.00
2023-05-12T09:15:34.063Z,3380.00
2023-05-12T09:16:34.129Z,3544.00
2023-05-12T09:17:34.086Z,3428.00
2023-05-12T09:18:34.074Z,3164.00
2023-05-12T09:19:34.033Z,3120.00
2023-05-12T09:20:34.129Z,3084.00
2023-05-12T09:21:34.011Z,3076.00
2023-05-12T09:22:34.005Z,2992.00
2023-05-12T09:23:34.022Z,2860.00
2023-05-12T09:24:34.001Z,2768.00
2023-05-12T09:25:33.981Z,2728.00
2023-05-12T09:26:33.996Z,2732.00
2023-05-12T09:27:33.981Z,2732.00
2023-05-12T09:28:33.970Z,2772.00
2023-05-12T09:29:37.448Z,2864.00
2023-05-12T09:30:33.952Z,2936.00
2023-05-12T09:31:33.988Z,3024.00
2023-05-12T09:32:34.021Z,3048.00
2023-05-12T09:33:33.929Z,3004.00
2023-05-12T09:34:33.936Z,2960.00
2023-05-12T09:35:33.925Z,2960.00
2023-05-12T09:36:33.973Z,2968.00
2023-05-12T09:37:33.902Z,3024.00
2023-05-12T09:38:33.903Z,3120.00
2023-05-12T09:39:33.894Z,3196.00
2023-05-12T09:40:33.883Z,3272.00
2023-05-12T09:41:33.876Z,3372.00
2023-05-12T09:42:33.877Z,3480.00
2023-05-12T09:43:33.863Z,3500.00
2023-05-12T09:44:33.885Z,3516.00
2023-05-12T09:45:33.954Z,3508.00
2023-05-12T09:46:34.188Z,3496.00
2023-05-12T09:47:33.876Z,3504.00
2023-05-12T09:48:33.826Z,3536.00
2023-05-12T09:49:33.819Z,3584.00
2023-05-12T09:50:44.224Z,3648.00
2023-05-12T09:51:33.798Z,3700.00
2023-05-12T09:52:33.890Z,3700.00
2023-05-12T09:53:33.787Z,3704.00
2023-05-12T09:54:33.808Z,3848.00
2023-05-12T09:55:33.773Z,3776.00
2023-05-12T09:56:33.774Z,3700.00
2023-05-12T09:57:33.758Z,3620.00
2023-05-12T09:58:33.756Z,3540.00
2023-05-12T09:59:33.758Z,3464.00
2023-05-12T10:00:48.920Z,3424.00
2023-05-12T10:01:33.751Z,3456.00
2023-05-12T10:02:33.844Z,3588.00
2023-05-12T10:03:33.721Z,3476.00
2023-05-12T10:04:33.782Z,3720.00
2023-05-12T10:05:33.708Z,4000.00
2023-05-12T10:06:33.698Z,3648.00
2023-05-12T10:07:33.700Z,3404.00
2023-05-12T10:08:33.808Z,3508.00
2023-05-12T10:09:33.682Z,3516.00
2023-05-12T10:10:33.668Z,3700.00
2023-05-12T10:11:33.672Z,3680.00
2023-05-12T10:12:33.655Z,4156.00
2023-05-12T10:13:33.653Z,4064.00
2023-05-12T10:14:33.640Z,4160.00
2023-05-12T10:15:33.639Z,3852.00
2023-05-12T10:16:33.689Z,3764.00
2023-05-12T10:17:33.642Z,3964.00
2023-05-12T10:18:33.644Z,3488.00
2023-05-12T10:19:33.615Z,3516.00
2023-05-12T10:20:33.611Z,3452.00
2023-05-12T10:21:33.622Z,3472.00
2023-05-12T10:22:33.600Z,3540.00
2023-05-12T10:23:34.930Z,3652.00
2023-05-12T10:24:33.604Z,3848.00
2023-05-12T10:25:33.573Z,4092.00
2023-05-12T10:26:33.565Z,4512.00
2023-05-12T10:27:33.568Z,4520.00
2023-05-12T10:28:33.550Z,4164.00
2023-05-12T10:29:33.547Z,3880.00
2023-05-12T10:30:33.550Z,3728.00
2023-05-12T10:31:33.568Z,3840.00
2023-05-12T10:32:33.579Z,3696.00
2023-05-12T10:33:33.527Z,3732.00
2023-05-12T10:34:33.516Z,4044.00
2023-05-12T10:35:33.514Z,4088.00
2023-05-12T10:36:33.505Z,3952.00
2023-05-12T10:37:33.501Z,3956.00
2023-05-12T10:38:33.493Z,3664.00
2023-05-12T10:39:33.488Z,3308.00
2023-05-12T10:40:33.505Z,3336.00
2023-05-12T10:41:33.496Z,3532.00
2023-05-12T10:42:33.471Z,3816.00
2023-05-12T10:43:33.469Z,3872.00
2023-05-12T10:44:33.472Z,3776.00
2023-05-12T10:45:33.462Z,3608.00
2023-05-12T10:46:33.473Z,3036.00
2023-05-12T10:47:33.478Z,3016.00
2023-05-12T10:48:33.436Z,3016.00
2023-05-12T10:49:33.435Z,2864.00
2023-05-12T10:50:33.421Z,2852.00
2023-05-12T10:51:33.439Z,2888.00
2023-05-12T10:52:33.406Z,2912.00
2023-05-12T10:53:47.837Z,2712.00
2023-05-12T10:54:33.399Z,2668.00
2023-05-12T10:55:33.457Z,2672.00
2023-05-12T10:56:33.729Z,2676.00
2023-05-12T10:57:34.136Z,2612.00
2023-05-12T10:58:33.634Z,2620.00
2023-05-12T10:59:33.890Z,2656.00
2023-05-12T11:00:33.864Z,2716.00
2023-05-12T11:01:33.529Z,2676.00
2023-05-12T11:03:34.613Z,2620.00
2023-05-12T11:04:33.894Z,2584.00
2023-05-12T11:05:33.525Z,2564.00
2023-05-12T11:06:34.247Z,2544.00
2023-05-12T11:07:33.496Z,2528.00
2023-05-12T11:08:34.164Z,2512.00
2023-05-12T11:09:34.703Z,2496.00
2023-05-12T11:10:33.751Z,2492.00
2023-05-12T11:11:34.149Z,2488.00
2023-05-12T11:12:33.516Z,2440.00
2023-05-12T11:13:33.283Z,2408.00
2023-05-12T11:14:33.271Z,2412.00
2023-05-12T11:15:33.271Z,2448.00
2023-05-12T11:16:33.330Z,2452.00
2023-05-12T11:17:33.360Z,2468.00
2023-05-12T11:18:33.253Z,2480.00
2023-05-12T11:19:33.238Z,2464.00
2023-05-12T11:20:33.230Z,2404.00
2023-05-12T11:21:33.222Z,2368.00
2023-05-12T11:22:33.216Z,2372.00
2023-05-12T11:23:33.212Z,2396.00
2023-05-12T11:24:33.200Z,2388.00
2023-05-12T11:25:33.410Z,2360.00
2023-05-12T11:26:33.190Z,2352.00
2023-05-12T11:27:33.183Z,2368.00
2023-05-12T11:28:33.199Z,2376.00
2023-05-12T11:29:33.173Z,2384.00
2023-05-12T11:30:33.174Z,2412.00
2023-05-12T11:31:33.173Z,2464.00
2023-05-12T11:32:33.183Z,2440.00
2023-05-12T11:33:33.157Z,2392.00
2023-05-12T11:34:33.138Z,2412.00
2023-05-12T11:35:33.139Z,2448.00
2023-05-12T11:36:33.115Z,2528.00
2023-05-12T11:37:33.117Z,2620.00
2023-05-12T11:38:33.121Z,2752.00
2023-05-12T11:39:33.230Z,2864.00
2023-05-12T11:40:33.094Z,2932.00
2023-05-12T11:41:33.088Z,2948.00
2023-05-12T11:42:33.082Z,2908.00
2023-05-12T11:43:33.072Z,2812.00
2023-05-12T11:44:33.124Z,2744.00
2023-05-12T11:45:33.116Z,2696.00
2023-05-12T11:46:33.049Z,2676.00
2023-05-12T11:47:33.083Z,2644.00
2023-05-12T11:48:33.038Z,2608.00
2023-05-12T11:49:33.039Z,2624.00
2023-05-12T11:50:33.026Z,2692.00
2023-05-12T11:51:33.225Z,2728.00
2023-05-12T11:52:33.009Z,2732.00
2023-05-12T11:53:33.011Z,2780.00
2023-05-12T11:54:33.001Z,2892.00
2023-05-12T11:55:32.993Z,3016.00
2023-05-12T11:56:32.985Z,3192.00
2023-05-12T11:57:32.988Z,3604.00
2023-05-12T11:58:33.978Z,3924.00
2023-05-12T11:59:32.967Z,3964.00
2023-05-12T12:00:33.008Z,3964.00
2023-05-12T12:01:32.955Z,3348.00
2023-05-12T12:02:33.022Z,3828.00
2023-05-12T12:03:33.040Z,3760.00
2023-05-12T12:04:33.250Z,3152.00
2023-05-12T12:05:32.935Z,2804.00
2023-05-12T12:06:32.922Z,2764.00
2023-05-12T12:07:32.930Z,2768.00
2023-05-12T12:08:32.911Z,2692.00
2023-05-12T12:09:32.910Z,2620.00
2023-05-12T12:10:32.900Z,2596.00
2023-05-12T12:11:32.895Z,2600.00
2023-05-12T12:12:32.909Z,2592.00
2023-05-12T12:13:32.915Z,2616.00
2023-05-12T12:14:32.876Z,2928.00
2023-05-12T12:15:32.874Z,2740.00
2023-05-12T12:16:33.087Z,2984.00
2023-05-12T12:17:32.904Z,2768.00
2023-05-12T12:18:32.875Z,2772.00
2023-05-12T12:19:32.851Z,2788.00
2023-05-12T12:20:32.842Z,2856.00
2023-05-12T12:21:32.842Z,2976.00
2023-05-12T12:22:32.829Z,3156.00
2023-05-12T12:23:40.639Z,3888.00
2023-05-12T12:24:32.819Z,4048.00
2023-05-12T12:25:32.818Z,2876.00
2023-05-12T12:26:32.806Z,2856.00
2023-05-12T12:27:32.805Z,2800.00
2023-05-12T12:28:32.794Z,2744.00
2023-05-12T12:29:32.793Z,2688.00
2023-05-12T12:30:32.791Z,2632.00
2023-05-12T12:31:32.798Z,2588.00
2023-05-12T12:32:32.796Z,2564.00
2023-05-12T12:33:32.765Z,2544.00
2023-05-12T12:34:32.763Z,2520.00
2023-05-12T12:35:32.756Z,2488.00
2023-05-12T12:36:32.748Z,2456.00
2023-05-12T12:37:32.745Z,2436.00
2023-05-12T12:38:32.732Z,2456.00
2023-05-12T12:39:32.728Z,2440.00
2023-05-12T12:40:32.724Z,2396.00
2023-05-12T12:41:32.725Z,2372.00
2023-05-12T12:42:32.712Z,2368.00
2023-05-12T12:43:32.715Z,2400.00
2023-05-12T12:44:32.701Z,2432.00
2023-05-12T12:45:32.697Z,2456.00
2023-05-12T12:46:32.735Z,2432.00
2023-05-12T12:47:32.740Z,2388.00
2023-05-12T12:48:32.741Z,2348.00
2023-05-12T12:49:32.672Z,2340.00
2023-05-12T12:50:32.668Z,2364.00
2023-05-12T12:51:42.098Z,2404.00
2023-05-12T12:52:32.646Z,2552.00
2023-05-12T12:53:32.644Z,2908.00